createdAt,value
2023-03-31T00:01:24.298Z,97300.56
2023-03-31T00:03:52.846Z,97282.09
2023-03-31T00:06:21.185Z,97293.00
2023-03-31T00:08:52.522Z,97294.13
2023-03-31T00:11:23.716Z,97295.31
2023-03-31T00:13:51.956Z,97301.41
2023-03-31T00:16:20.513Z,97295.41
2023-03-31T00:18:51.013Z,97300.88
2023-03-31T00:21:29.929Z,97306.94
2023-03-31T00:24:00.186Z,97301.91
2023-03-31T00:26:31.155Z,97299.69
2023-03-31T00:29:01.521Z,97291.84
2023-03-31T00:31:30.557Z,97296.59
2023-03-31T00:33:59.352Z,97303.06
2023-03-31T00:36:28.880Z,97298.28
2023-03-31T00:38:59.307Z,97304.22
2023-03-31T00:41:30.912Z,97313.22
2023-03-31T00:44:10.730Z,97310.06
2023-03-31T00:46:45.446Z,97317.44
2023-03-31T00:49:23.806Z,97314.81
2023-03-31T00:51:54.982Z,97312.78
2023-03-31T00:54:26.660Z,97317.13
2023-03-31T00:56:58.730Z,97310.06
2023-03-31T00:59:30.543Z,97310.84
2023-03-31T01:02:03.070Z,97301.78
2023-03-31T01:04:36.318Z,97299.75
2023-03-31T01:07:12.583Z,97297.25
2023-03-31T01:09:42.233Z,97298.88
2023-03-31T01:12:12.360Z,97296.94
2023-03-31T01:14:40.715Z,97290.81
2023-03-31T01:17:10.647Z,97289.09
2023-03-31T01:19:54.579Z,97274.94
2023-03-31T01:22:47.180Z,97274.16
2023-03-31T01:25:54.039Z,97284.84
2023-03-31T01:28:32.771Z,97270.81
2023-03-31T01:31:42.603Z,97260.38
2023-03-31T01:34:41.583Z,97263.25
2023-03-31T01:37:47.377Z,97268.59
2023-03-31T01:40:27.070Z,97255.75
2023-03-31T01:42:58.809Z,97263.72
2023-03-31T01:45:39.818Z,97257.84
2023-03-31T01:48:14.902Z,97259.81
2023-03-31T01:50:48.753Z,97248.66
2023-03-31T01:53:23.048Z,97251.47
2023-03-31T01:56:04.558Z,97250.81
2023-03-31T01:58:38.023Z,97247.50
2023-03-31T02:01:16.109Z,97243.44
2023-03-31T02:03:49.583Z,97229.63
2023-03-31T02:06:24.588Z,97220.34
2023-03-31T02:08:58.569Z,97216.31
2023-03-31T02:11:32.092Z,97211.38
2023-03-31T02:14:05.715Z,97208.16
2023-03-31T02:16:38.054Z,97210.94
2023-03-31T02:19:08.435Z,97212.16
2023-03-31T02:21:40.465Z,97219.28
2023-03-31T02:24:13.093Z,97215.50
2023-03-31T02:26:47.684Z,97215.50
2023-03-31T02:29:16.203Z,97213.00
2023-03-31T02:31:50.766Z,97207.00
2023-03-31T02:34:19.011Z,97212.63
2023-03-31T02:36:47.633Z,97212.06
2023-03-31T02:39:21.314Z,97219.59
2023-03-31T02:41:51.274Z,97211.47
2023-03-31T02:44:22.540Z,97219.78
2023-03-31T02:46:51.129Z,97216.31
2023-03-31T02:49:21.454Z,97219.00
2023-03-31T02:52:06.873Z,97211.19
2023-03-31T02:55:07.761Z,97205.25
2023-03-31T02:58:04.787Z,97203.66
2023-03-31T03:00:44.924Z,97205.41
2023-03-31T03:03:30.634Z,97206.56
2023-03-31T03:06:05.833Z,97208.47
2023-03-31T03:08:55.521Z,97202.59
2023-03-31T03:11:32.971Z,97194.91
2023-03-31T03:14:10.594Z,97198.44
2023-03-31T03:16:42.672Z,97192.56
2023-03-31T03:19:11.919Z,97203.69
2023-03-31T03:21:40.137Z,97203.69
2023-03-31T03:24:09.193Z,97201.44
2023-03-31T03:26:37.319Z,97199.19
2023-03-31T03:29:06.997Z,97206.41
2023-03-31T03:31:35.358Z,97202.28
2023-03-31T03:34:03.629Z,97198.94
2023-03-31T03:36:31.817Z,97195.38
2023-03-31T03:39:00.029Z,97189.44
2023-03-31T03:41:28.110Z,97184.31
2023-03-31T03:43:56.261Z,97182.72
2023-03-31T03:46:25.893Z,97185.47
2023-03-31T03:48:54.273Z,97182.97
2023-03-31T03:51:22.415Z,97175.19
2023-03-31T03:53:50.801Z,97174.22
2023-03-31T03:56:18.951Z,97164.75
2023-03-31T03:58:47.164Z,97169.84
2023-03-31T04:01:16.350Z,97179.81
2023-03-31T04:03:46.259Z,97183.63
2023-03-31T04:06:14.480Z,97168.63
2023-03-31T04:08:42.791Z,97163.53
2023-03-31T04:11:18.838Z,97158.00
2023-03-31T04:13:48.357Z,97159.56
2023-03-31T04:16:16.929Z,97145.50
2023-03-31T04:18:48.821Z,97144.25
2023-03-31T04:21:23.193Z,97150.81
2023-03-31T04:23:59.056Z,97157.00
2023-03-31T04:26:39.074Z,97157.22
2023-03-31T04:29:07.733Z,97166.06
2023-03-31T04:31:38.783Z,97155.72
2023-03-31T04:34:13.546Z,97144.22
2023-03-31T04:36:47.762Z,97142.31
2023-03-31T04:39:18.248Z,97128.91
2023-03-31T04:41:47.242Z,97121.69
2023-03-31T04:44:15.766Z,97126.50
2023-03-31T04:46:44.018Z,97129.94
2023-03-31T04:49:13.928Z,97116.81
2023-03-31T04:51:42.190Z,97108.94
2023-03-31T04:54:10.677Z,97102.53
2023-03-31T04:56:39.013Z,97110.66
2023-03-31T04:59:08.596Z,97121.97
2023-03-31T05:01:37.463Z,97124.44
2023-03-31T05:04:06.777Z,97119.81
2023-03-31T05:06:36.455Z,97117.88
2023-03-31T05:09:04.788Z,97109.81
2023-03-31T05:11:33.061Z,97110.44
2023-03-31T05:14:01.345Z,97112.06
2023-03-31T05:16:29.706Z,97111.69
2023-03-31T05:18:58.125Z,97110.53
2023-03-31T05:21:26.990Z,97111.94
2023-03-31T05:23:56.611Z,97111.69
2023-03-31T05:26:25.544Z,97106.06
2023-03-31T05:28:54.158Z,97109.16
2023-03-31T05:31:22.788Z,97117.75
2023-03-31T05:33:51.086Z,97105.16
2023-03-31T05:36:19.341Z,97101.28
2023-03-31T05:38:47.893Z,97100.31
2023-03-31T05:41:17.993Z,97100.78
2023-03-31T05:43:46.470Z,97095.97
2023-03-31T05:46:14.907Z,97086.22
2023-03-31T05:48:46.208Z,97085.16
2023-03-31T05:51:14.457Z,97081.41
2023-03-31T05:53:43.346Z,97078.47
2023-03-31T05:56:12.312Z,97069.66
2023-03-31T05:58:42.052Z,97070.09
2023-03-31T06:01:12.077Z,97058.56
2023-03-31T06:03:42.575Z,97046.84
2023-03-31T06:06:13.268Z,97034.91
2023-03-31T06:08:42.529Z,97024.78
2023-03-31T06:11:13.037Z,97026.00
2023-03-31T06:13:43.245Z,97013.34
2023-03-31T06:16:13.188Z,97019.88
2023-03-31T06:18:42.682Z,97024.63
2023-03-31T06:21:13.963Z,97001.03
2023-03-31T06:23:44.457Z,97000.00
2023-03-31T06:26:14.813Z,96995.25
2023-03-31T06:28:45.040Z,96994.13
2023-03-31T06:31:15.103Z,97001.00
2023-03-31T06:33:44.712Z,97002.22
2023-03-31T06:36:15.179Z,96998.78
2023-03-31T06:38:43.781Z,96997.50
2023-03-31T06:41:14.622Z,97000.25
2023-03-31T06:43:44.422Z,96990.06
2023-03-31T06:46:13.461Z,96985.78
2023-03-31T06:48:42.628Z,96994.44
2023-03-31T06:51:11.491Z,96985.78
2023-03-31T06:53:39.777Z,96979.38
2023-03-31T06:56:08.792Z,96986.00
2023-03-31T06:58:37.594Z,96992.75
2023-03-31T07:01:08.169Z,96986.00
2023-03-31T07:03:37.033Z,96971.84
2023-03-31T07:06:05.686Z,96968.31
2023-03-31T07:08:34.269Z,96979.22
2023-03-31T07:11:03.472Z,96957.69
2023-03-31T07:13:32.210Z,96955.88
2023-03-31T07:16:00.611Z,96952.88
2023-03-31T07:18:35.371Z,96943.41
2023-03-31T07:21:08.166Z,96938.94
2023-03-31T07:23:38.430Z,96936.53
2023-03-31T07:26:06.821Z,96939.50
2023-03-31T07:28:35.068Z,96929.94
2023-03-31T07:31:03.577Z,96931.88
2023-03-31T07:33:33.360Z,96935.91
2023-03-31T07:36:12.870Z,96939.50
2023-03-31T07:38:42.744Z,96932.72
2023-03-31T07:41:13.107Z,96929.94
2023-03-31T07:43:41.801Z,96932.09
2023-03-31T07:46:16.470Z,96937.97
2023-03-31T07:48:47.790Z,96920.56
2023-03-31T07:51:17.137Z,96916.06
2023-03-31T07:53:46.406Z,96919.69
2023-03-31T07:56:14.886Z,96914.97
2023-03-31T07:58:43.247Z,96913.38
2023-03-31T08:01:12.342Z,96904.22
2023-03-31T08:03:40.810Z,96911.66
2023-03-31T08:06:10.818Z,96905.84
2023-03-31T08:08:43.344Z,96897.41
2023-03-31T08:11:11.783Z,96892.56
2023-03-31T08:13:40.024Z,96896.94
2023-03-31T08:16:08.810Z,96877.38
2023-03-31T08:18:37.460Z,96868.41
2023-03-31T08:21:06.469Z,96866.56
2023-03-31T08:23:36.412Z,96872.25
2023-03-31T08:26:10.998Z,96878.88
2023-03-31T08:28:39.617Z,96867.19
2023-03-31T08:31:10.430Z,96852.88
2023-03-31T08:33:39.013Z,96844.41
2023-03-31T08:36:11.040Z,96835.31
2023-03-31T08:38:43.178Z,96827.09
2023-03-31T08:41:29.054Z,96835.44
2023-03-31T08:44:00.808Z,96822.16
2023-03-31T08:46:31.827Z,96821.81
2023-03-31T08:49:02.779Z,96824.69
2023-03-31T08:51:34.045Z,96818.16
2023-03-31T08:54:08.156Z,96808.47
2023-03-31T08:56:39.347Z,96796.50
2023-03-31T08:59:17.419Z,96794.00
2023-03-31T09:01:55.975Z,96780.28
2023-03-31T09:04:44.563Z,96788.59
2023-03-31T09:07:20.363Z,96770.03
2023-03-31T09:09:59.302Z,96749.44
2023-03-31T09:12:37.021Z,96748.78
2023-03-31T09:15:14.027Z,96745.09
2023-03-31T09:17:47.670Z,96735.84
2023-03-31T09:20:21.160Z,96748.56
2023-03-31T09:22:53.558Z,96740.13
2023-03-31T09:25:27.991Z,96733.81
2023-03-31T09:28:00.706Z,96735.88
2023-03-31T09:30:31.418Z,96727.41
2023-03-31T09:33:12.550Z,96722.03
2023-03-31T09:35:40.911Z,96716.63
2023-03-31T09:38:13.008Z,96711.22
2023-03-31T09:40:44.105Z,96708.72
2023-03-31T09:43:22.988Z,96687.34
2023-03-31T09:46:07.565Z,96675.22
2023-03-31T09:48:39.058Z,96680.56
2023-03-31T09:51:12.557Z,96684.28
2023-03-31T09:53:45.208Z,96683.66
2023-03-31T09:56:15.086Z,96701.69
2023-03-31T09:58:46.238Z,96696.78
2023-03-31T10:01:16.538Z,96680.00
2023-03-31T10:03:51.706Z,96664.66
2023-03-31T10:06:20.741Z,96647.22
2023-03-31T10:08:53.193Z,96660.31
2023-03-31T10:11:24.347Z,96679.09
2023-03-31T10:14:00.636Z,96672.28
2023-03-31T10:16:32.671Z,96676.94
2023-03-31T10:19:14.493Z,96669.81
2023-03-31T10:21:47.435Z,96665.19
2023-03-31T10:24:19.614Z,96664.47
2023-03-31T10:26:51.511Z,96653.28
2023-03-31T10:29:25.698Z,96636.31
2023-03-31T10:31:54.375Z,96628.72
2023-03-31T10:34:24.118Z,96633.09
2023-03-31T10:36:53.584Z,96619.25
2023-03-31T10:39:22.196Z,96615.59
2023-03-31T10:41:55.303Z,96606.75
2023-03-31T10:44:41.380Z,96615.97
2023-03-31T10:47:21.071Z,96614.69
2023-03-31T10:49:51.787Z,96608.66
2023-03-31T10:52:23.112Z,96608.47
2023-03-31T10:54:56.604Z,96594.91
2023-03-31T10:57:35.795Z,96590.94
2023-03-31T11:00:15.283Z,96593.50
2023-03-31T11:03:17.158Z,96581.09
2023-03-31T11:05:50.934Z,96579.03
2023-03-31T11:08:36.565Z,96577.84
2023-03-31T11:11:28.268Z,96561.53
2023-03-31T11:14:07.096Z,96541.78
2023-03-31T11:16:43.502Z,96521.13
2023-03-31T11:19:25.480Z,96525.31
2023-03-31T11:22:02.641Z,96521.13
2023-03-31T11:24:48.220Z,96509.53
2023-03-31T11:27:31.648Z,96505.63
2023-03-31T11:30:06.501Z,96495.69
2023-03-31T11:32:49.079Z,96497.59
2023-03-31T11:35:32.932Z,96485.00
2023-03-31T11:38:25.094Z,96494.38
2023-03-31T11:41:02.600Z,96502.72
2023-03-31T11:43:36.492Z,96490.06
2023-03-31T11:46:12.468Z,96488.94
2023-03-31T11:48:46.439Z,96488.53
2023-03-31T11:51:19.428Z,96485.56
2023-03-31T11:53:49.766Z,96473.88
2023-03-31T11:56:20.060Z,96479.28
2023-03-31T11:58:56.322Z,96484.16
2023-03-31T12:01:32.299Z,96473.72
2023-03-31T12:04:06.532Z,96467.31
2023-03-31T12:06:40.060Z,96458.06
2023-03-31T12:09:17.236Z,96444.25
2023-03-31T12:11:51.515Z,96451.16
2023-03-31T12:14:31.274Z,96438.41
2023-03-31T12:17:06.301Z,96434.13
2023-03-31T12:19:41.911Z,96437.06
2023-03-31T12:22:15.559Z,96434.25
2023-03-31T12:24:43.848Z,96431.69
2023-03-31T12:27:18.704Z,96424.78
2023-03-31T12:29:49.920Z,96414.28
2023-03-31T12:32:23.493Z,96414.44
2023-03-31T12:34:58.634Z,96411.84
2023-03-31T12:38:10.433Z,96404.00
2023-03-31T12:40:51.736Z,96400.31
2023-03-31T12:43:43.938Z,96382.41
2023-03-31T12:46:26.273Z,96384.22
2023-03-31T12:49:06.963Z,96381.66
2023-03-31T12:51:49.494Z,96373.31
2023-03-31T12:54:49.890Z,96369.84
2023-03-31T12:57:23.683Z,96361.16
2023-03-31T13:00:21.440Z,96361.66
2023-03-31T13:02:50.685Z,96364.47
2023-03-31T13:05:49.471Z,96356.03
2023-03-31T13:08:55.679Z,96366.03
2023-03-31T13:11:36.217Z,96350.09
2023-03-31T13:14:08.383Z,96342.91
2023-03-31T13:16:37.796Z,96350.75
2023-03-31T13:19:06.942Z,96349.03
2023-03-31T13:21:54.634Z,96338.16
2023-03-31T13:24:24.961Z,96336.88
2023-03-31T13:26:56.829Z,96331.97
2023-03-31T13:29:27.415Z,96339.50
2023-03-31T13:32:22.390Z,96320.91
2023-03-31T13:35:15.638Z,96318.88
2023-03-31T13:38:11.655Z,96316.94
2023-03-31T13:40:57.769Z,96312.56
2023-03-31T13:43:45.549Z,96309.38
2023-03-31T13:46:52.315Z,96300.69
2023-03-31T13:49:49.760Z,96294.31
2023-03-31T13:52:27.830Z,96290.69
2023-03-31T13:55:30.239Z,96284.00
2023-03-31T14:01:17.884Z,96251.84
2023-03-31T14:04:02.462Z,96261.25
2023-03-31T14:06:37.222Z,96259.38
2023-03-31T14:09:08.916Z,96250.84
2023-03-31T14:11:39.290Z,96255.88
2023-03-31T14:14:13.146Z,96259.91
2023-03-31T14:16:46.176Z,96252.22
2023-03-31T14:19:41.311Z,96254.56
2023-03-31T14:22:19.270Z,96246.72
2023-03-31T14:24:56.055Z,96242.53
2023-03-31T14:27:43.862Z,96239.00
2023-03-31T14:30:20.299Z,96240.16
2023-03-31T14:33:04.299Z,96226.47
2023-03-31T14:35:38.955Z,96222.44
2023-03-31T14:38:12.352Z,96208.66
2023-03-31T14:40:48.551Z,96193.56
2023-03-31T14:43:23.055Z,96189.38
2023-03-31T14:45:59.739Z,96197.16
2023-03-31T14:48:29.927Z,96186.00
2023-03-31T14:51:00.490Z,96185.88
2023-03-31T14:53:29.307Z,96202.09
2023-03-31T14:56:04.117Z,96193.47
2023-03-31T14:58:38.297Z,96190.47
2023-03-31T15:01:09.151Z,96196.28
2023-03-31T15:03:41.798Z,96210.94
2023-03-31T15:06:11.473Z,96204.03
2023-03-31T15:08:40.300Z,96212.38
2023-03-31T15:11:19.081Z,96201.66
2023-03-31T15:14:03.482Z,96206.81
2023-03-31T15:16:42.145Z,96206.69
2023-03-31T15:19:16.660Z,96218.06
2023-03-31T15:21:46.415Z,96211.53
2023-03-31T15:24:16.000Z,96219.44
2023-03-31T15:26:48.810Z,96220.78
2023-03-31T15:29:24.428Z,96223.13
2023-03-31T15:31:53.146Z,96226.47
2023-03-31T15:34:27.366Z,96216.03
2023-03-31T15:36:57.314Z,96215.34
2023-03-31T15:39:27.863Z,96224.19
2023-03-31T15:41:57.834Z,96213.09
2023-03-31T15:44:39.663Z,96211.44
2023-03-31T15:47:14.436Z,96214.59
2023-03-31T15:49:51.225Z,96209.59
2023-03-31T15:52:26.834Z,96217.06
2023-03-31T15:54:55.433Z,96208.88
2023-03-31T15:57:33.998Z,96209.41
2023-03-31T16:00:07.951Z,96200.81
2023-03-31T16:02:46.627Z,96202.59
2023-03-31T16:05:37.313Z,96199.06
2023-03-31T16:08:16.612Z,96214.81
2023-03-31T16:10:45.565Z,96217.41
2023-03-31T16:13:23.360Z,96209.88
2023-03-31T16:15:58.349Z,96217.31
2023-03-31T16:18:32.186Z,96212.47
2023-03-31T16:21:04.578Z,96212.47
2023-03-31T16:23:35.572Z,96220.28
2023-03-31T16:26:04.271Z,96225.94
2023-03-31T16:28:36.223Z,96219.47
2023-03-31T16:31:07.006Z,96213.25
2023-03-31T16:33:57.686Z,96213.38
2023-03-31T16:36:26.454Z,96218.38
2023-03-31T16:38:55.687Z,96222.31
2023-03-31T16:41:24.697Z,96240.59
2023-03-31T16:43:54.288Z,96247.09
2023-03-31T16:46:31.954Z,96249.84
2023-03-31T16:49:00.924Z,96240.13
2023-03-31T16:51:30.194Z,96252.50
2023-03-31T16:53:59.527Z,96255.22
2023-03-31T16:56:28.499Z,96270.63
2023-03-31T16:58:57.742Z,96285.25
2023-03-31T17:01:29.257Z,96297.50
2023-03-31T17:03:58.118Z,96313.72
2023-03-31T17:06:28.251Z,96342.25
2023-03-31T17:08:56.907Z,96349.28
2023-03-31T17:11:26.783Z,96351.44
2023-03-31T17:13:56.711Z,96366.66
2023-03-31T17:16:32.890Z,96379.28
2023-03-31T17:19:10.824Z,96387.88
2023-03-31T17:21:40.366Z,96407.47
2023-03-31T17:24:09.513Z,96417.84
2023-03-31T17:26:39.532Z,96406.63
2023-03-31T17:29:09.524Z,96408.13
2023-03-31T17:31:38.692Z,96382.66
2023-03-31T17:34:07.634Z,96368.47
2023-03-31T17:36:39.020Z,96407.28
2023-03-31T17:39:07.987Z,96401.53
2023-03-31T17:41:36.853Z,96385.88
2023-03-31T17:44:08.826Z,96367.81
2023-03-31T17:46:38.506Z,96384.44
2023-03-31T17:49:07.293Z,96378.66
2023-03-31T17:51:38.564Z,96378.91
2023-03-31T17:54:07.818Z,96371.69
2023-03-31T17:56:37.121Z,96374.34
2023-03-31T17:59:05.844Z,96370.72
2023-03-31T18:01:35.150Z,96372.53
2023-03-31T18:04:04.226Z,96385.88
2023-03-31T18:06:33.861Z,96380.97
2023-03-31T18:09:06.793Z,96386.03
2023-03-31T18:11:36.619Z,96367.84
2023-03-31T18:14:06.973Z,96382.88
2023-03-31T18:16:37.367Z,96374.94
2023-03-31T18:19:06.641Z,96380.38
2023-03-31T18:21:40.328Z,96380.81
2023-03-31T18:24:10.615Z,96382.16
2023-03-31T18:26:40.043Z,96383.00
2023-03-31T18:29:09.925Z,96376.28
2023-03-31T18:31:39.652Z,96376.28
2023-03-31T18:34:09.905Z,96373.59
2023-03-31T18:36:39.875Z,96375.28
2023-03-31T18:39:11.163Z,96376.75
2023-03-31T18:41:45.239Z,96364.69
2023-03-31T18:44:16.485Z,96347.03
2023-03-31T18:46:47.138Z,96357.59
2023-03-31T18:49:16.962Z,96369.88
2023-03-31T18:51:48.487Z,96384.31
2023-03-31T18:54:19.937Z,96384.66
2023-03-31T18:56:49.704Z,96380.56
2023-03-31T18:59:19.160Z,96374.78
2023-03-31T19:01:48.658Z,96382.00
2023-03-31T19:04:18.992Z,96368.31
2023-03-31T19:06:50.288Z,96376.22
2023-03-31T19:09:23.366Z,96371.19
2023-03-31T19:11:54.521Z,96370.22
2023-03-31T19:14:24.503Z,96347.63
2023-03-31T19:16:55.006Z,96360.84
2023-03-31T19:19:26.031Z,96360.38
2023-03-31T19:21:56.963Z,96365.41
2023-03-31T19:24:28.747Z,96365.50
2023-03-31T19:26:59.659Z,96359.03
2023-03-31T19:29:32.657Z,96356.50
2023-03-31T19:32:07.384Z,96355.44
2023-03-31T19:34:42.972Z,96351.69
2023-03-31T19:37:12.626Z,96352.66
2023-03-31T19:39:43.820Z,96352.41
2023-03-31T19:42:13.450Z,96352.41
2023-03-31T19:44:46.266Z,96337.50
2023-03-31T19:47:16.952Z,96332.91
2023-03-31T19:49:47.092Z,96336.16
2023-03-31T19:52:18.108Z,96347.59
2023-03-31T19:54:53.912Z,96339.19
2023-03-31T19:57:27.246Z,96336.88
2023-03-31T19:59:59.265Z,96332.41
2023-03-31T20:02:29.396Z,96335.78
2023-03-31T20:04:59.322Z,96336.03
2023-03-31T20:07:32.747Z,96335.78
2023-03-31T20:10:03.678Z,96324.59
2023-03-31T20:12:34.850Z,96321.63
2023-03-31T20:15:04.613Z,96331.22
2023-03-31T20:17:35.535Z,96328.91
2023-03-31T20:20:06.099Z,96335.53
2023-03-31T20:22:35.468Z,96337.44
2023-03-31T20:25:07.204Z,96342.94
2023-03-31T20:27:37.095Z,96341.03
2023-03-31T20:30:12.842Z,96334.25
2023-03-31T20:32:43.199Z,96338.28
2023-03-31T20:35:13.040Z,96326.84
2023-03-31T20:37:43.348Z,96333.94
2023-03-31T20:40:14.842Z,96330.25
2023-03-31T20:42:43.741Z,96322.41
2023-03-31T20:45:13.033Z,96311.47
2023-03-31T20:47:42.831Z,96316.50
2023-03-31T20:50:11.840Z,96311.22
2023-03-31T20:52:40.446Z,96313.88
2023-03-31T20:55:10.032Z,96302.34
2023-03-31T20:57:39.698Z,96302.81
2023-03-31T21:00:09.671Z,96308.47
2023-03-31T21:02:38.708Z,96302.56
2023-03-31T21:05:07.966Z,96305.56
2023-03-31T21:07:36.497Z,96312.38
2023-03-31T21:10:05.436Z,96293.63
2023-03-31T21:12:34.746Z,96299.44
2023-03-31T21:15:05.026Z,96294.34
2023-03-31T21:17:33.422Z,96279.09
2023-03-31T21:20:01.845Z,96282.78
2023-03-31T21:22:30.190Z,96292.78
2023-03-31T21:24:58.534Z,96285.22
2023-03-31T21:27:27.134Z,96293.03
2023-03-31T21:29:55.461Z,96293.88
2023-03-31T21:32:25.365Z,96283.53
2023-03-31T21:34:53.927Z,96296.41
2023-03-31T21:37:22.422Z,96291.44
2023-03-31T21:39:50.887Z,96298.03
2023-03-31T21:42:19.316Z,96297.53
2023-03-31T21:44:47.989Z,96303.22
2023-03-31T21:47:16.302Z,96295.78
2023-03-31T21:49:45.993Z,96289.06
2023-03-31T21:52:14.275Z,96280.00
2023-03-31T21:54:42.590Z,96279.78
2023-03-31T21:57:11.428Z,96277.47
2023-03-31T21:59:40.151Z,96284.94
2023-03-31T22:02:08.493Z,96289.72
2023-03-31T22:04:36.941Z,96286.13
2023-03-31T22:07:06.652Z,96281.56
2023-03-31T22:09:35.044Z,96271.81
2023-03-31T22:12:03.431Z,96278.75
2023-03-31T22:14:31.779Z,96291.72
2023-03-31T22:17:01.299Z,96293.84
2023-03-31T22:19:29.501Z,96301.84
2023-03-31T22:21:58.484Z,96299.53
2023-03-31T22:24:28.137Z,96302.25
2023-03-31T22:26:56.503Z,96297.72
2023-03-31T22:29:24.724Z,96303.53
2023-03-31T22:31:53.501Z,96297.50
2023-03-31T22:34:21.939Z,96299.31
2023-03-31T22:36:50.532Z,96298.47
2023-03-31T22:39:19.695Z,96292.13
2023-03-31T22:41:49.678Z,96299.53
2023-03-31T22:44:18.101Z,96297.00
2023-03-31T22:46:47.172Z,96285.19
2023-03-31T22:49:15.965Z,96308.63
2023-03-31T22:51:45.329Z,96304.19
2023-03-31T22:54:15.349Z,96295.44
2023-03-31T22:56:44.302Z,96295.66
2023-03-31T22:59:14.040Z,96284.94
2023-03-31T23:01:42.342Z,96295.25
2023-03-31T23:04:10.892Z,96290.44
2023-03-31T23:06:39.355Z,96291.38
2023-03-31T23:09:07.756Z,96280.44
2023-03-31T23:11:36.077Z,96285.91
2023-03-31T23:14:04.839Z,96283.41
2023-03-31T23:16:34.638Z,96286.25
2023-03-31T23:19:02.970Z,96287.94
2023-03-31T23:21:31.731Z,96288.69
2023-03-31T23:24:02.314Z,96298.25
2023-03-31T23:26:33.502Z,96287.31
2023-03-31T23:29:02.410Z,96295.56
2023-03-31T23:31:32.553Z,96283.03
2023-03-31T23:34:02.522Z,96298.25
2023-03-31T23:36:31.911Z,96297.41
2023-03-31T23:39:00.194Z,96289.38
2023-03-31T23:41:28.693Z,96293.38
2023-03-31T23:43:57.935Z,96294.41
2023-03-31T23:46:26.797Z,96276.31
2023-03-31T23:48:55.913Z,96293.13
2023-03-31T23:51:25.720Z,96294.72
2023-03-31T23:53:54.434Z,96275.66
2023-03-31T23:56:22.818Z,96277.09
2023-03-31T23:58:51.095Z,96261.72
